Time;durP1;ratioP1;P1;durP2;ratioP2;P2;SDS_P1;SDS_P2;PMS_P1;PMS_P2;Temp;Humidity;BMP_temperature;BMP_pressure;BME280_temperature;BME280_humidity;BME280_pressure;Samples;Min_cycle;Max_cycle;Signal;HPM_P1;HPM_P2
2021/09/12 00:02:15;;;;;;;3.50;1.17;;;18.70;64.70;;;;;;2358714;52;20938;-71
2021/09/12 00:04:41;;;;;;;2.45;1.05;;;18.60;64.60;;;;;;2361801;52;20911;-71
2021/09/12 00:07:09;;;;;;;2.40;1.25;;;18.60;64.60;;;;;;2359625;53;20998;-69
2021/09/12 00:09:35;;;;;;;5.10;1.25;;;18.60;64.70;;;;;;2357904;53;20991;-68
2021/09/12 00:12:01;;;;;;;3.42;1.15;;;18.60;64.70;;;;;;2356903;53;22021;-69
2021/09/12 00:14:27;;;;;;;2.17;1.10;;;18.60;64.70;;;;;;2358432;53;20962;-73
2021/09/12 00:16:54;;;;;;;2.75;1.00;;;18.60;64.70;;;;;;2484681;52;20949;-69
2021/09/12 00:19:21;;;;;;;2.00;0.90;;;18.50;64.70;;;;;;2361759;52;21009;-70
2021/09/12 00:21:47;;;;;;;2.60;1.00;;;18.50;64.60;;;;;;2608369;52;20990;-70
2021/09/12 00:24:14;;;;;;;2.40;1.20;;;18.50;64.60;;;;;;2355367;53;20979;-69
2021/09/12 00:26:41;;;;;;;2.58;1.30;;;18.50;64.60;;;;;;2351962;53;21008;-70
2021/09/12 00:29:07;;;;;;;2.28;1.08;;;18.40;64.50;;;;;;2444472;53;21041;-69
2021/09/12 00:31:35;;;;;;;3.05;1.00;;;18.40;64.50;;;;;;2391568;52;20999;-73
2021/09/12 00:34:02;;;;;;;4.15;1.08;;;18.30;64.50;;;;;;2356689;52;20945;-70
2021/09/12 00:36:29;;;;;;;2.30;1.00;;;18.30;64.50;;;;;;2366761;52;20982;-69
2021/09/12 00:38:58;;;;;;;1.73;0.80;;;18.30;64.60;;;;;;2351372;53;20997;-70
2021/09/12 00:41:24;;;;;;;2.40;1.00;;;18.20;64.50;;;;;;2361986;52;20982;-68
2021/09/12 00:43:51;;;;;;;2.03;1.00;;;18.20;64.60;;;;;;2358787;53;21117;-69
2021/09/12 00:46:17;;;;;;;3.20;1.10;;;18.20;64.70;;;;;;2354773;52;22098;-68
2021/09/12 00:48:43;;;;;;;2.65;1.08;;;18.20;64.70;;;;;;2339250;53;21275;-70
2021/09/12 00:51:09;;;;;;;2.40;1.10;;;18.10;64.70;;;;;;2349345;52;21320;-71
2021/09/12 00:53:36;;;;;;;2.17;1.10;;;18.10;64.80;;;;;;2343426;53;21024;-69
2021/09/12 00:56:03;;;;;;;2.25;0.88;;;18.10;64.80;;;;;;2436867;52;21002;-68
2021/09/12 00:58:29;;;;;;;4.25;1.25;;;18.10;64.90;;;;;;2357391;53;20961;-70
2021/09/12 01:00:56;;;;;;;3.40;1.10;;;18.10;64.90;;;;;;2360799;52;20946;-70
2021/09/12 01:03:25;;;;;;;3.60;1.20;;;18.00;64.80;;;;;;2357738;53;21054;-70
2021/09/12 01:05:51;;;;;;;2.70;0.95;;;18.00;64.80;;;;;;2367072;52;21054;-72
2021/09/12 01:08:18;;;;;;;2.85;1.00;;;18.00;64.90;;;;;;2357613;53;21432;-70
2021/09/12 01:10:46;;;;;;;3.80;0.98;;;18.00;65.00;;;;;;2361851;53;20951;-70
2021/09/12 01:13:15;;;;;;;2.25;0.90;;;17.90;65.70;;;;;;2362187;53;21029;-70
2021/09/12 01:15:41;;;;;;;2.80;1.02;;;17.90;65.10;;;;;;2357037;53;21505;-69
2021/09/12 01:18:08;;;;;;;2.10;1.02;;;17.90;65.30;;;;;;2356924;53;21483;-70
2021/09/12 01:20:35;;;;;;;2.50;1.00;;;17.90;65.40;;;;;;2389536;52;20997;-69
2021/09/12 01:23:02;;;;;;;2.53;1.20;;;17.90;65.40;;;;;;2357471;53;21012;-72
2021/09/12 01:25:28;;;;;;;3.10;0.95;;;17.90;65.50;;;;;;2362239;53;20986;-71
2021/09/12 01:27:54;;;;;;;2.15;1.00;;;17.90;65.50;;;;;;2426455;52;20954;-70
2021/09/12 01:30:21;;;;;;;2.67;0.93;;;17.90;65.50;;;;;;2474042;52;20914;-70
2021/09/12 01:32:48;;;;;;;2.15;0.98;;;17.90;65.50;;;;;;2362096;52;21022;-70
2021/09/12 01:35:16;;;;;;;2.28;1.00;;;17.90;65.50;;;;;;2345897;53;21140;-69
2021/09/12 01:37:42;;;;;;;2.72;0.90;;;17.90;65.50;;;;;;2358876;52;21009;-69
2021/09/12 01:40:09;;;;;;;1.95;0.82;;;17.90;65.50;;;;;;2354536;53;21017;-70
2021/09/12 01:42:38;;;;;;;1.92;0.90;;;17.90;65.50;;;;;;2601121;52;20940;-70
2021/09/12 01:45:05;;;;;;;1.83;0.85;;;17.90;65.50;;;;;;2356926;53;20958;-71
2021/09/12 01:47:32;;;;;;;1.77;0.85;;;17.90;65.50;;;;;;2608639;52;21014;-70
2021/09/12 01:49:59;;;;;;;1.60;0.73;;;17.90;65.40;;;;;;2332274;53;22173;-69
2021/09/12 01:52:26;;;;;;;3.40;0.90;;;17.90;65.40;;;;;;2593308;52;21001;-70
2021/09/12 01:54:52;;;;;;;3.58;1.50;;;17.90;65.40;;;;;;2608846;52;24868;-73
2021/09/12 01:57:18;;;;;;;2.67;1.23;;;17.90;65.30;;;;;;2345625;53;20969;-71
2021/09/12 01:59:47;;;;;;;2.35;0.80;;;17.90;65.20;;;;;;2429372;52;20914;-70
2021/09/12 02:02:14;;;;;;;2.83;0.90;;;17.90;65.10;;;;;;2369107;52;21016;-71
2021/09/12 02:04:40;;;;;;;2.40;1.17;;;17.90;65.10;;;;;;2342675;52;20997;-71
2021/09/12 02:07:08;;;;;;;2.03;0.93;;;17.80;65.00;;;;;;2361620;53;20997;-73
2021/09/12 02:09:34;;;;;;;2.53;1.20;;;17.80;65.00;;;;;;2356016;53;20967;-68
2021/09/12 02:12:00;;;;;;;2.25;1.10;;;17.80;65.00;;;;;;2366107;52;21003;-71
2021/09/12 02:14:28;;;;;;;2.62;1.12;;;17.80;65.00;;;;;;2345893;53;20917;-69
2021/09/12 02:16:54;;;;;;;2.08;1.02;;;17.70;65.00;;;;;;2372165;52;21571;-69
2021/09/12 02:19:20;;;;;;;2.70;1.33;;;17.70;65.00;;;;;;2356240;53;21019;-69
2021/09/12 02:21:46;;;;;;;1.75;0.90;;;17.70;65.10;;;;;;2479388;52;21008;-69
2021/09/12 02:24:12;;;;;;;2.33;1.12;;;17.70;65.10;;;;;;2347349;53;21969;-69
2021/09/12 02:26:39;;;;;;;3.15;1.23;;;17.60;65.10;;;;;;2362084;52;21038;-68
2021/09/12 02:29:05;;;;;;;2.95;1.40;;;17.60;65.10;;;;;;2362168;52;22981;-72
2021/09/12 02:31:31;;;;;;;2.35;1.00;;;17.60;65.10;;;;;;2349848;53;20961;-69
2021/09/12 02:33:57;;;;;;;2.70;1.20;;;17.60;65.10;;;;;;2356113;53;21001;-70
2021/09/12 02:36:26;;;;;;;3.12;1.20;;;17.60;65.10;;;;;;2575555;52;21050;-70
2021/09/12 02:38:55;;;;;;;3.08;1.12;;;17.50;65.00;;;;;;2355870;53;21495;-70
2021/09/12 02:41:22;;;;;;;2.80;1.30;;;17.50;65.00;;;;;;2365518;52;21240;-68
2021/09/12 02:43:48;;;;;;;4.07;1.30;;;17.50;65.00;;;;;;2351177;53;20929;-69
2021/09/12 02:46:14;;;;;;;4.45;1.33;;;17.40;64.90;;;;;;2361364;53;21687;-70
2021/09/12 02:48:44;;;;;;;5.22;1.30;;;17.40;64.80;;;;;;2357343;53;21064;-69
2021/09/12 02:51:11;;;;;;;3.58;1.40;;;17.40;64.90;;;;;;2450032;52;20930;-72
2021/09/12 02:53:37;;;;;;;3.15;1.42;;;17.40;65.00;;;;;;2456599;52;20965;-67
2021/09/12 02:56:07;;;;;;;2.58;1.27;;;17.40;65.00;;;;;;2338263;53;20965;-73
2021/09/12 02:58:33;;;;;;;3.30;1.23;;;17.30;65.00;;;;;;2357286;53;20941;-69
2021/09/12 03:01:24;;;;;;;2.72;0.98;;;17.30;65.00;;;;;;2357292;53;20957;-69
2021/09/12 03:03:50;;;;;;;1.75;0.95;;;17.30;65.20;;;;;;2357444;53;20948;-70
2021/09/12 03:06:16;;;;;;;4.62;1.10;;;17.30;65.10;;;;;;2610302;52;21033;-69
2021/09/12 03:08:43;;;;;;;2.50;1.30;;;17.30;65.10;;;;;;2600482;52;21347;-71
2021/09/12 03:11:11;;;;;;;2.95;1.33;;;17.20;65.10;;;;;;2357128;53;21081;-72
2021/09/12 03:13:37;;;;;;;2.30;1.12;;;17.20;65.00;;;;;;2610766;52;20993;-69
2021/09/12 03:16:04;;;;;;;3.65;1.10;;;17.20;65.10;;;;;;2579720;52;21041;-69
2021/09/12 03:18:30;;;;;;;2.40;1.10;;;17.20;65.10;;;;;;2608633;52;21027;-70
2021/09/12 03:20:57;;;;;;;2.50;1.02;;;17.20;65.20;;;;;;2607363;52;20945;-69
2021/09/12 03:23:23;;;;;;;2.22;1.20;;;17.10;65.10;;;;;;2357409;53;21009;-68
2021/09/12 03:25:51;;;;;;;4.35;1.30;;;17.20;65.20;;;;;;2356524;52;20974;-69
2021/09/12 03:28:20;;;;;;;2.28;1.00;;;17.20;65.30;;;;;;2396751;52;20937;-70
2021/09/12 03:30:47;;;;;;;2.37;1.15;;;17.10;65.20;;;;;;2361491;53;20942;-70
2021/09/12 03:33:15;;;;;;;3.75;1.60;;;17.10;65.20;;;;;;2363348;53;20958;-69
2021/09/12 03:35:42;;;;;;;5.05;1.27;;;17.10;65.30;;;;;;2356131;53;20958;-70
2021/09/12 03:38:09;;;;;;;3.00;1.50;;;17.10;65.30;;;;;;2374983;52;20963;-70
2021/09/12 03:40:37;;;;;;;4.20;1.40;;;17.10;65.40;;;;;;2354464;53;20984;-72
2021/09/12 03:43:07;;;;;;;2.30;1.10;;;17.10;65.40;;;;;;2358899;52;20925;-72
2021/09/12 03:45:33;;;;;;;2.60;1.20;;;17.10;65.50;;;;;;2361947;53;20934;-68
2021/09/12 03:48:00;;;;;;;2.62;1.27;;;17.10;65.40;;;;;;2365290;52;20947;-70
2021/09/12 03:50:28;;;;;;;4.37;2.00;;;17.10;65.40;;;;;;2428515;52;20982;-70
2021/09/12 03:52:54;;;;;;;2.55;1.33;;;17.00;65.20;;;;;;2348532;53;20937;-70
2021/09/12 03:55:24;;;;;;;2.33;1.15;;;17.00;65.20;;;;;;2435583;53;20966;-72
2021/09/12 03:57:50;;;;;;;2.83;1.35;;;17.00;65.20;;;;;;2342666;53;21564;-70
2021/09/12 04:00:17;;;;;;;2.97;1.52;;;17.00;65.30;;;;;;2360482;53;21037;-71
2021/09/12 04:02:43;;;;;;;4.70;1.60;;;17.00;65.40;;;;;;2321728;53;21057;-69
2021/09/12 04:05:10;;;;;;;3.87;1.40;;;17.00;65.50;;;;;;2363362;52;20993;-70
2021/09/12 04:07:37;;;;;;;3.05;1.25;;;17.00;65.60;;;;;;2356981;53;20946;-69
2021/09/12 04:10:05;;;;;;;2.22;1.10;;;16.90;65.60;;;;;;2367288;52;20987;-70
2021/09/12 04:12:31;;;;;;;2.65;1.08;;;16.90;65.70;;;;;;2358715;53;21078;-70
2021/09/12 04:14:58;;;;;;;2.47;1.00;;;17.00;65.90;;;;;;2593755;52;20974;-70
2021/09/12 04:17:26;;;;;;;3.05;0.98;;;17.00;66.00;;;;;;2348818;53;20957;-71
2021/09/12 04:19:53;;;;;;;2.30;1.10;;;17.00;66.10;;;;;;2408176;52;20970;-71
2021/09/12 04:22:19;;;;;;;2.80;1.30;;;17.00;66.10;;;;;;2357556;53;20941;-68
2021/09/12 04:24:45;;;;;;;3.15;1.10;;;17.00;66.10;;;;;;2342469;53;20970;-69
2021/09/12 04:27:15;;;;;;;2.72;1.20;;;17.00;66.00;;;;;;2363714;52;21057;-70
2021/09/12 04:29:41;;;;;;;3.37;1.20;;;17.00;66.70;;;;;;2369292;53;21153;-69
2021/09/12 04:32:08;;;;;;;1.87;0.95;;;17.00;66.00;;;;;;2348561;53;20970;-69
2021/09/12 04:34:35;;;;;;;2.58;1.00;;;17.00;65.90;;;;;;2356729;53;21005;-71
2021/09/12 04:37:01;;;;;;;3.40;1.45;;;17.00;65.80;;;;;;2361131;53;20929;-72
2021/09/12 04:39:29;;;;;;;2.65;1.40;;;17.00;65.70;;;;;;2354884;53;20985;-69
2021/09/12 04:41:55;;;;;;;3.92;1.33;;;17.10;65.70;;;;;;2360042;53;21003;-73
2021/09/12 04:44:21;;;;;;;2.35;1.17;;;17.00;65.60;;;;;;2339088;53;20966;-69
2021/09/12 04:46:48;;;;;;;2.50;1.20;;;17.00;65.50;;;;;;2344149;53;21571;-70
2021/09/12 04:49:14;;;;;;;2.95;1.40;;;17.00;65.50;;;;;;2356992;53;21052;-69
2021/09/12 04:51:40;;;;;;;3.10;1.52;;;17.00;65.50;;;;;;2361245;53;21006;-71
2021/09/12 04:54:08;;;;;;;3.90;1.25;;;16.90;65.40;;;;;;2596478;52;20932;-72
2021/09/12 04:56:34;;;;;;;2.33;1.20;;;16.90;65.40;;;;;;2367440;52;21452;-68
2021/09/12 04:59:00;;;;;;;3.78;1.33;;;16.90;65.50;;;;;;2594847;52;20957;-70
2021/09/12 05:01:28;;;;;;;2.22;1.20;;;16.90;65.50;;;;;;2352430;52;20965;-69
2021/09/12 05:03:55;;;;;;;3.28;1.20;;;16.90;65.50;;;;;;2357281;53;21068;-69
2021/09/12 05:06:21;;;;;;;3.58;1.20;;;16.90;65.50;;;;;;2357932;53;20949;-70
2021/09/12 05:08:47;;;;;;;3.70;1.00;;;16.90;65.50;;;;;;2361726;52;20986;-73
2021/09/12 05:11:13;;;;;;;2.15;0.90;;;16.80;65.40;;;;;;2358028;53;21467;-69
2021/09/12 05:13:40;;;;;;;2.10;1.02;;;16.80;65.40;;;;;;2357121;53;21005;-69
2021/09/12 05:16:06;;;;;;;2.20;1.10;;;16.80;65.50;;;;;;2357363;53;20993;-68
2021/09/12 05:18:34;;;;;;;3.15;1.20;;;16.80;65.50;;;;;;2356711;53;20949;-70
2021/09/12 05:21:03;;;;;;;4.37;1.40;;;16.80;65.40;;;;;;2557617;52;21312;-72
2021/09/12 05:23:31;;;;;;;1.92;0.93;;;16.80;65.50;;;;;;2356353;53;21120;-69
2021/09/12 05:25:57;;;;;;;2.70;1.20;;;16.80;65.60;;;;;;2357247;53;20997;-70
2021/09/12 05:28:23;;;;;;;2.92;1.45;;;16.80;65.70;;;;;;2357281;53;20950;-68
2021/09/12 05:30:49;;;;;;;5.95;1.40;;;16.80;65.80;;;;;;2357115;53;21028;-73
2021/09/12 05:33:16;;;;;;;4.10;1.25;;;16.80;66.00;;;;;;2356756;53;20965;-71
2021/09/12 05:35:42;;;;;;;4.22;2.10;;;16.80;66.10;;;;;;2356941;53;21578;-73
2021/09/12 05:38:11;;;;;;;3.15;1.40;;;16.80;66.20;;;;;;2383173;52;20985;-70
2021/09/12 05:40:38;;;;;;;4.12;1.70;;;16.80;66.30;;;;;;2489628;52;20945;-68
2021/09/12 05:43:04;;;;;;;5.22;1.85;;;16.90;66.50;;;;;;2357916;53;21446;-73
2021/09/12 05:45:31;;;;;;;3.90;1.85;;;16.90;66.30;;;;;;2607883;52;21432;-69
2021/09/12 05:48:00;;;;;;;4.05;1.73;;;16.90;66.30;;;;;;2357177;53;22086;-72
2021/09/12 05:50:26;;;;;;;3.72;1.70;;;16.90;66.20;;;;;;2361574;53;21113;-70
2021/09/12 05:52:53;;;;;;;4.72;1.75;;;16.90;66.30;;;;;;2357728;53;21432;-72
2021/09/12 05:55:22;;;;;;;4.05;1.40;;;16.90;66.30;;;;;;2356842;53;20937;-69
2021/09/12 05:57:48;;;;;;;2.87;1.33;;;16.90;66.30;;;;;;2357452;53;20938;-70
2021/09/12 06:00:15;;;;;;;14.00;1.98;;;16.90;66.40;;;;;;2357401;53;20938;-71
2021/09/12 06:02:41;;;;;;;2.92;1.35;;;16.90;66.60;;;;;;2608121;52;20946;-69
2021/09/12 06:05:11;;;;;;;3.35;1.85;;;16.90;66.80;;;;;;2357102;53;20954;-69
2021/09/12 06:07:37;;;;;;;2.92;1.55;;;17.00;67.00;;;;;;2362012;52;20977;-69
2021/09/12 06:10:04;;;;;;;3.17;1.42;;;17.00;67.20;;;;;;2359014;53;20975;-69
2021/09/12 06:12:30;;;;;;;6.30;1.85;;;17.00;67.30;;;;;;2586520;52;20938;-70
2021/09/12 06:14:58;;;;;;;5.07;1.60;;;17.00;67.40;;;;;;2347642;53;21022;-71
2021/09/12 06:17:24;;;;;;;3.90;1.80;;;17.10;67.60;;;;;;2364409;52;21011;-70
2021/09/12 06:19:51;;;;;;;4.53;1.67;;;17.10;67.70;;;;;;2351203;53;20941;-70
2021/09/12 06:22:18;;;;;;;8.32;2.62;;;17.20;67.90;;;;;;2357233;53;21484;-69
2021/09/12 06:24:44;;;;;;;4.30;2.40;;;17.30;68.10;;;;;;2357289;53;20945;-69
2021/09/12 06:27:10;;;;;;;3.30;1.77;;;17.30;68.20;;;;;;2356999;53;20929;-70
2021/09/12 06:29:36;;;;;;;3.60;2.03;;;17.40;68.20;;;;;;2361414;52;20967;-70
2021/09/12 06:32:03;;;;;;;3.95;1.73;;;17.40;68.10;;;;;;2366166;52;21023;-69
2021/09/12 06:34:29;;;;;;;4.43;1.90;;;17.50;68.10;;;;;;2351409;53;21041;-69
2021/09/12 06:36:58;;;;;;;3.17;1.60;;;17.50;68.50;;;;;;2361614;52;21345;-70
2021/09/12 06:39:27;;;;;;;3.85;2.03;;;17.60;69.60;;;;;;2349709;53;20941;-70
2021/09/12 06:41:53;;;;;;;6.22;1.83;;;17.80;70.50;;;;;;2344381;53;21005;-70
2021/09/12 06:44:19;;;;;;;3.15;1.62;;;17.90;70.60;;;;;;2357401;53;20930;-68
2021/09/12 06:46:48;;;;;;;3.15;1.80;;;18.10;70.20;;;;;;2357579;53;20942;-72
2021/09/12 06:49:14;;;;;;;3.85;2.00;;;18.30;69.70;;;;;;2361068;53;20946;-70
2021/09/12 06:51:41;;;;;;;3.33;1.75;;;18.40;69.20;;;;;;2356601;53;20957;-69
2021/09/12 06:54:09;;;;;;;3.28;1.75;;;18.50;68.80;;;;;;2361349;52;21423;-70
2021/09/12 06:56:36;;;;;;;3.50;2.00;;;18.50;68.40;;;;;;2345824;53;21051;-71
2021/09/12 06:59:02;;;;;;;5.62;2.83;;;18.60;68.20;;;;;;2357601;53;21003;-70
2021/09/12 07:01:29;;;;;;;4.93;2.83;;;18.60;68.00;;;;;;2359003;53;20990;-72
2021/09/12 07:04:01;;;;;;;3.95;2.17;;;18.60;67.90;;;;;;2357085;52;20941;-71
2021/09/12 07:06:28;;;;;;;2.83;1.52;;;18.60;67.80;;;;;;2357547;53;20941;-70
2021/09/12 07:08:55;;;;;;;3.20;1.70;;;18.70;67.80;;;;;;2423676;52;21567;-70
2021/09/12 07:11:21;;;;;;;3.00;1.25;;;18.70;67.90;;;;;;2357124;53;20918;-71
2021/09/12 07:13:48;;;;;;;2.90;1.45;;;18.70;68.00;;;;;;2357208;53;21000;-70
2021/09/12 07:16:14;;;;;;;4.62;1.80;;;18.70;68.10;;;;;;2361652;52;20943;-71
2021/09/12 07:18:40;;;;;;;2.90;1.45;;;18.80;68.20;;;;;;2357626;53;20949;-68
2021/09/12 07:21:08;;;;;;;3.47;1.23;;;18.80;68.30;;;;;;2366840;53;20971;-70
2021/09/12 07:23:34;;;;;;;4.05;1.08;;;18.80;68.50;;;;;;2392884;52;20906;-71
2021/09/12 07:26:00;;;;;;;2.97;1.23;;;18.90;68.60;;;;;;2366515;52;20916;-70
2021/09/12 07:28:28;;;;;;;2.80;1.20;;;19.00;68.80;;;;;;2360766;53;20979;-70
2021/09/12 07:30:54;;;;;;;2.55;1.20;;;19.00;68.80;;;;;;2357377;53;21045;-70
2021/09/12 07:33:20;;;;;;;2.40;1.12;;;19.10;68.90;;;;;;2358298;53;21005;-68
2021/09/12 07:35:47;;;;;;;2.45;1.30;;;19.20;68.90;;;;;;2608536;52;21050;-75
2021/09/12 07:38:16;;;;;;;2.20;0.90;;;19.20;68.90;;;;;;2362606;52;20986;-69
2021/09/12 07:40:43;;;;;;;2.60;1.33;;;19.30;69.00;;;;;;2362311;53;21019;-70
2021/09/12 07:43:09;;;;;;;2.50;1.17;;;19.40;69.10;;;;;;2357865;53;20938;-72
2021/09/12 07:45:35;;;;;;;2.47;1.12;;;19.40;69.10;;;;;;2358122;53;20958;-73
2021/09/12 07:48:01;;;;;;;4.65;1.80;;;19.50;69.20;;;;;;2358242;53;20950;-69
2021/09/12 07:50:28;;;;;;;2.92;1.80;;;19.60;69.40;;;;;;2574217;52;21050;-69
2021/09/12 07:52:54;;;;;;;3.03;1.60;;;19.70;69.50;;;;;;2518581;52;21456;-73
2021/09/12 07:55:20;;;;;;;2.28;1.20;;;19.80;69.60;;;;;;2362420;53;21002;-68
2021/09/12 07:57:48;;;;;;;2.90;1.45;;;19.90;69.40;;;;;;2357695;52;21088;-71
2021/09/12 08:00:14;;;;;;;2.40;1.23;;;19.90;69.10;;;;;;2364050;52;21038;-71
2021/09/12 08:02:42;;;;;;;2.80;1.60;;;20.00;69.00;;;;;;2357737;52;20978;-74
2021/09/12 08:05:09;;;;;;;3.05;1.35;;;20.00;68.70;;;;;;2361063;53;20953;-72
2021/09/12 08:07:35;;;;;;;2.22;1.17;;;20.00;68.70;;;;;;2347287;53;22043;-71
2021/09/12 08:10:02;;;;;;;3.45;1.60;;;20.00;68.90;;;;;;2412713;52;21072;-72
2021/09/12 08:12:28;;;;;;;2.50;1.50;;;20.10;69.20;;;;;;2358631;53;21910;-71
2021/09/12 08:14:54;;;;;;;2.72;1.48;;;20.20;69.40;;;;;;2363148;52;20957;-73
2021/09/12 08:17:21;;;;;;;2.53;1.40;;;20.30;69.50;;;;;;2362394;52;20961;-70
2021/09/12 08:19:53;;;;;;;2.62;1.48;;;20.30;69.50;;;;;;2357563;53;21044;-73
2021/09/12 08:22:19;;;;;;;2.70;1.60;;;20.40;69.50;;;;;;2493496;52;21022;-70
2021/09/12 08:24:46;;;;;;;2.92;1.73;;;20.50;69.50;;;;;;2357998;53;20966;-71
2021/09/12 08:27:12;;;;;;;2.83;1.60;;;20.50;69.50;;;;;;2361687;52;20978;-71
2021/09/12 08:29:38;;;;;;;2.70;1.40;;;20.70;69.60;;;;;;2358162;53;20981;-70
2021/09/12 08:32:05;;;;;;;2.70;1.60;;;20.80;69.70;;;;;;2508346;52;20974;-71
2021/09/12 08:34:32;;;;;;;2.95;1.60;;;20.80;69.50;;;;;;2358078;53;21966;-70
2021/09/12 08:36:59;;;;;;;2.80;1.60;;;20.90;69.60;;;;;;2358443;53;21439;-72
2021/09/12 08:39:26;;;;;;;3.08;1.77;;;21.00;69.80;;;;;;2359000;53;21719;-73
2021/09/12 08:41:54;;;;;;;2.40;1.45;;;21.10;69.90;;;;;;2363307;52;21244;-72
2021/09/12 08:44:20;;;;;;;2.92;1.70;;;21.20;69.80;;;;;;2373182;52;21009;-70
2021/09/12 08:46:47;;;;;;;2.45;1.25;;;21.30;69.50;;;;;;2363170;52;20998;-70
2021/09/12 08:49:15;;;;;;;2.40;1.30;;;21.40;69.40;;;;;;2459026;52;20943;-73
2021/09/12 08:51:41;;;;;;;2.60;1.33;;;21.50;69.20;;;;;;2358516;53;21921;-69
2021/09/12 08:54:07;;;;;;;2.75;1.58;;;21.50;69.20;;;;;;2362534;53;20938;-74
2021/09/12 08:56:34;;;;;;;2.47;1.50;;;21.60;69.20;;;;;;2351971;53;20965;-74
2021/09/12 08:59:28;;;;;;;2.70;1.50;;;21.70;69.30;;;;;;2352586;53;21090;-74
2021/09/12 09:01:56;;;;;;;3.10;1.48;;;21.80;69.70;;;;;;2492765;52;20934;-72
2021/09/12 09:04:26;;;;;;;2.55;1.45;;;21.90;69.70;;;;;;2444167;52;21588;-74
2021/09/12 09:07:05;;;;;;;2.90;1.62;;;22.10;69.90;;;;;;2609256;52;21084;-71
2021/09/12 09:09:48;;;;;;;2.83;1.58;;;22.10;69.50;;;;;;2380648;52;20959;-72
2021/09/12 09:12:34;;;;;;;2.72;1.33;;;22.20;69.20;;;;;;2337108;53;20930;-74
2021/09/12 09:15:12;;;;;;;2.80;1.65;;;22.40;69.10;;;;;;2609444;52;20993;-74
2021/09/12 09:17:57;;;;;;;2.90;1.50;;;22.40;69.20;;;;;;2358257;52;21502;-74
2021/09/12 09:20:33;;;;;;;2.60;1.58;;;22.50;68.60;;;;;;2358295;53;20966;-71
2021/09/12 09:23:05;;;;;;;2.50;1.52;;;22.60;68.80;;;;;;2358191;53;20946;-70
2021/09/12 09:25:31;;;;;;;2.78;1.40;;;22.70;69.00;;;;;;2486973;52;20973;-72
2021/09/12 09:28:08;;;;;;;2.35;1.33;;;22.80;69.10;;;;;;2358404;53;20945;-71
2021/09/12 09:30:53;;;;;;;2.45;1.40;;;22.90;68.70;;;;;;2358211;53;20965;-70
2021/09/12 09:33:29;;;;;;;2.62;1.40;;;23.00;68.50;;;;;;2385914;52;20965;-74
2021/09/12 09:36:06;;;;;;;2.65;1.67;;;23.10;68.40;;;;;;2361990;53;21082;-72
2021/09/12 09:38:37;;;;;;;2.37;1.33;;;23.10;68.40;;;;;;2357999;52;22019;-71
2021/09/12 09:41:14;;;;;;;2.50;1.30;;;23.20;68.30;;;;;;2352605;52;21087;-75
2021/09/12 09:43:50;;;;;;;2.30;1.25;;;23.30;68.40;;;;;;2545181;52;20970;-72
2021/09/12 09:47:24;;;;;;;2.40;1.10;;;23.40;69.10;;;;;;2506523;52;20970;-70
2021/09/12 09:50:01;;;;;;;2.33;1.12;;;23.50;67.80;;;;;;2609194;52;20954;-69
2021/09/12 09:52:28;;;;;;;2.15;1.00;;;23.50;68.40;;;;;;2363072;52;20998;-68
2021/09/12 09:54:55;;;;;;;2.30;1.20;;;23.60;68.10;;;;;;2392822;52;21065;-69
2021/09/12 09:57:22;;;;;;;3.85;1.40;;;23.70;67.80;;;;;;2358259;53;20974;-71
2021/09/12 09:59:49;;;;;;;2.30;1.27;;;23.80;67.90;;;;;;2430701;52;22040;-72
2021/09/12 10:02:19;;;;;;;2.45;1.20;;;23.80;67.90;;;;;;2358973;53;20929;-68
2021/09/12 10:04:45;;;;;;;2.40;1.30;;;23.90;67.70;;;;;;2339359;53;22039;-70
2021/09/12 10:07:12;;;;;;;2.25;1.10;;;24.00;67.90;;;;;;2362118;53;21072;-69
2021/09/12 10:09:43;;;;;;;2.50;1.10;;;24.10;67.70;;;;;;2426484;52;20962;-72
2021/09/12 10:12:11;;;;;;;3.22;1.40;;;24.20;67.20;;;;;;2366022;53;20943;-72
2021/09/12 10:14:44;;;;;;;4.15;1.05;;;24.20;67.20;;;;;;2448968;53;21886;-73
2021/09/12 10:17:14;;;;;;;2.17;1.02;;;24.30;66.80;;;;;;2352529;53;21025;-70
2021/09/12 10:19:42;;;;;;;1.87;0.95;;;24.40;66.60;;;;;;2567062;52;20978;-73
2021/09/12 10:22:11;;;;;;;1.92;1.02;;;24.50;66.50;;;;;;2602946;52;20943;-69
2021/09/12 10:25:09;;;;;;;2.28;1.10;;;24.60;66.30;;;;;;2358726;53;20965;-68
2021/09/12 10:27:40;;;;;;;2.10;0.98;;;24.70;65.40;;;;;;2520444;52;21033;-72
2021/09/12 10:31:58;;;;;;;2.60;1.00;;;24.70;66.00;;;;;;2362799;52;20958;-69
2021/09/12 10:34:24;;;;;;;2.22;1.00;;;24.80;65.40;;;;;;2362966;53;20951;-70
2021/09/12 10:36:51;;;;;;;2.33;1.10;;;24.90;65.70;;;;;;2357910;53;21001;-69
2021/09/12 10:39:35;;;;;;;3.00;1.30;;;24.90;65.30;;;;;;2358655;52;21017;-72
2021/09/12 10:42:16;;;;;;;2.22;1.20;;;25.00;64.20;;;;;;2365602;53;20998;-73
2021/09/12 10:44:45;;;;;;;2.80;1.20;;;25.00;64.10;;;;;;2594109;52;20990;-72
2021/09/12 10:47:12;;;;;;;2.50;1.10;;;25.10;64.70;;;;;;2355498;53;20938;-68
2021/09/12 10:49:38;;;;;;;2.10;1.10;;;25.20;64.50;;;;;;2608563;52;21120;-71
2021/09/12 10:52:09;;;;;;;2.50;1.10;;;25.20;64.60;;;;;;2609786;52;20998;-70
2021/09/12 10:55:08;;;;;;;2.30;0.98;;;25.30;64.50;;;;;;2362630;52;21948;-72
2021/09/12 10:57:37;;;;;;;2.05;0.95;;;25.30;62.90;;;;;;2485519;52;21002;-71
2021/09/12 11:00:06;;;;;;;2.50;1.27;;;25.40;63.70;;;;;;2363366;52;20985;-70
2021/09/12 11:02:33;;;;;;;2.28;1.08;;;25.50;63.60;;;;;;2361993;53;21518;-69
2021/09/12 11:04:59;;;;;;;2.60;1.30;;;25.50;63.30;;;;;;2362214;53;22131;-73
2021/09/12 11:07:26;;;;;;;3.50;1.40;;;25.50;63.00;;;;;;2362277;53;20955;-69
2021/09/12 11:09:52;;;;;;;2.17;1.08;;;25.60;62.90;;;;;;2357949;53;20929;-70
2021/09/12 11:12:27;;;;;;;2.75;1.20;;;25.70;62.70;;;;;;2361006;52;21013;-70
2021/09/12 11:14:53;;;;;;;2.25;1.10;;;25.70;61.70;;;;;;2356106;53;20981;-71
2021/09/12 11:17:19;;;;;;;2.83;1.17;;;25.70;62.60;;;;;;2366727;52;21070;-70
2021/09/12 11:19:52;;;;;;;2.12;0.90;;;25.80;62.40;;;;;;2340816;53;20968;-70
2021/09/12 11:22:18;;;;;;;;;;;25.90;61.60;;;;;;2365060;53;20985;-73
2021/09/12 11:24:45;;;;;;;1.85;0.85;;;26.00;61.70;;;;;;2352568;52;1337574;-70
2021/09/12 11:27:11;;;;;;;2.65;0.98;;;26.10;62.20;;;;;;2357796;53;20926;-70
2021/09/12 11:29:38;;;;;;;2.40;1.30;;;26.10;62.20;;;;;;2358633;53;20962;-72
2021/09/12 11:32:09;;;;;;;1.98;0.93;;;26.20;61.50;;;;;;2363271;53;20930;-70
2021/09/12 11:34:36;;;;;;;2.25;1.08;;;26.30;60.60;;;;;;2355736;53;21005;-72
2021/09/12 11:37:07;;;;;;;2.10;1.00;;;26.30;60.60;;;;;;2354298;53;20939;-73
2021/09/12 11:39:47;;;;;;;2.35;1.20;;;26.30;60.60;;;;;;2600862;52;20986;-72
2021/09/12 11:42:18;;;;;;;2.08;0.75;;;26.30;59.50;;;;;;2554749;52;21001;-73
2021/09/12 11:44:49;;;;;;;1.77;0.88;;;26.40;59.20;;;;;;2359033;53;20965;-71
2021/09/12 11:47:16;;;;;;;1.50;0.70;;;26.40;58.90;;;;;;2362732;52;21831;-74
2021/09/12 11:49:43;;;;;;;1.92;0.80;;;26.40;59.20;;;;;;2352643;53;20993;-70
2021/09/12 11:52:09;;;;;;;1.83;0.77;;;26.40;59.20;;;;;;2343618;53;20966;-71
2021/09/12 11:54:36;;;;;;;1.30;0.60;;;26.40;59.10;;;;;;2358068;53;20942;-69
2021/09/12 11:57:07;;;;;;;1.90;0.80;;;26.50;59.10;;;;;;2362546;52;21006;-73
2021/09/12 11:59:40;;;;;;;1.65;0.80;;;26.50;58.70;;;;;;2362652;52;20958;-71
2021/09/12 12:02:10;;;;;;;1.80;0.80;;;26.50;58.10;;;;;;2362180;53;20969;-71
2021/09/12 12:04:36;;;;;;;1.27;0.57;;;26.60;58.10;;;;;;2428105;52;21566;-71
2021/09/12 12:07:03;;;;;;;1.70;0.75;;;26.60;58.10;;;;;;2423945;52;21461;-71
2021/09/12 12:09:44;;;;;;;1.58;0.80;;;26.60;58.00;;;;;;2457380;52;20997;-71
2021/09/12 12:12:20;;;;;;;1.90;0.70;;;26.70;57.00;;;;;;2607834;52;20905;-71
2021/09/12 12:14:55;;;;;;;2.25;0.90;;;26.70;57.80;;;;;;2357087;53;20958;-71
2021/09/12 12:17:22;;;;;;;1.77;0.73;;;26.70;57.70;;;;;;2357528;52;20961;-75
2021/09/12 12:19:50;;;;;;;2.35;0.88;;;26.70;57.70;;;;;;2608942;52;22094;-70
2021/09/12 12:22:17;;;;;;;2.67;1.00;;;26.80;57.60;;;;;;2365965;53;20963;-68
2021/09/12 12:24:58;;;;;;;2.05;1.10;;;26.80;57.40;;;;;;2364412;53;21339;-71
2021/09/12 12:27:25;;;;;;;1.67;0.70;;;26.90;57.10;;;;;;2346342;53;22093;-71
2021/09/12 12:29:56;;;;;;;2.15;0.80;;;26.90;57.00;;;;;;2426347;52;21078;-71
2021/09/12 12:32:22;;;;;;;2.08;0.85;;;27.00;56.40;;;;;;2361276;53;20995;-72
2021/09/12 12:34:53;;;;;;;2.00;0.82;;;27.00;56.80;;;;;;2346906;53;20993;-70
2021/09/12 12:37:21;;;;;;;2.12;0.80;;;27.00;56.60;;;;;;2348731;53;20968;-70
2021/09/12 12:40:09;;;;;;;1.37;0.60;;;27.00;57.00;;;;;;2361681;53;21010;-71
2021/09/12 12:42:39;;;;;;;1.62;0.70;;;27.10;55.00;;;;;;2360286;52;21033;-71
2021/09/12 12:46:58;;;;;;;2.08;0.98;;;27.10;56.20;;;;;;2609331;52;21042;-74
2021/09/12 12:49:28;;;;;;;3.12;0.88;;;27.20;55.70;;;;;;2366909;52;20902;-71
2021/09/12 12:52:11;;;;;;;2.30;1.10;;;27.20;56.00;;;;;;2351009;53;21939;-71
2021/09/12 12:54:40;;;;;;;1.95;0.77;;;27.20;54.60;;;;;;2365381;52;20962;-71
2021/09/12 12:57:10;;;;;;;1.60;0.73;;;27.20;55.50;;;;;;2339186;53;20993;-71
2021/09/12 12:59:37;;;;;;;2.30;0.88;;;27.20;55.60;;;;;;2404232;52;22059;-74